createdAt,value
2022-11-16T00:00:44.534Z,6.72
2022-11-16T00:01:41.411Z,6.73
2022-11-16T00:02:38.279Z,7.25
2022-11-16T00:03:35.506Z,6.44
2022-11-16T00:04:32.382Z,7.40
2022-11-16T00:05:29.640Z,6.82
2022-11-16T00:06:28.058Z,6.73
2022-11-16T00:07:24.814Z,7.21
2022-11-16T00:08:21.570Z,7.49
2022-11-16T00:09:26.872Z,7.70
2022-11-16T00:10:24.095Z,7.42
2022-11-16T00:11:20.840Z,7.25
2022-11-16T00:12:17.536Z,7.13
2022-11-16T00:13:14.225Z,6.85
2022-11-16T00:14:11.207Z,6.50
2022-11-16T00:15:08.251Z,6.59
2022-11-16T00:16:06.511Z,6.44
2022-11-16T00:17:04.291Z,7.42
2022-11-16T00:18:02.246Z,6.79
2022-11-16T00:19:02.831Z,7.43
2022-11-16T00:19:59.576Z,5.74
2022-11-16T00:20:56.430Z,6.26
2022-11-16T00:21:54.610Z,7.55
2022-11-16T00:22:51.338Z,7.45
2022-11-16T00:23:48.051Z,8.24
2022-11-16T00:24:44.837Z,7.07
2022-11-16T00:25:41.908Z,8.08
2022-11-16T00:26:38.649Z,8.14
2022-11-16T00:27:35.380Z,7.82
2022-11-16T00:28:32.460Z,7.56
2022-11-16T00:29:29.622Z,6.37
2022-11-16T00:30:26.358Z,6.23
2022-11-16T00:31:24.884Z,6.61
2022-11-16T00:32:21.596Z,7.07
2022-11-16T00:33:18.365Z,7.70
2022-11-16T00:34:15.216Z,7.83
2022-11-16T00:35:11.947Z,7.42
2022-11-16T00:36:11.915Z,7.00
2022-11-16T00:37:08.730Z,7.81
2022-11-16T00:38:06.658Z,7.40
2022-11-16T00:39:04.343Z,7.34
2022-11-16T00:40:01.045Z,7.16
2022-11-16T00:40:57.775Z,7.54
2022-11-16T00:41:54.518Z,7.88
2022-11-16T00:42:51.264Z,7.81
2022-11-16T00:43:48.143Z,6.65
2022-11-16T00:44:44.835Z,7.43
2022-11-16T00:45:43.198Z,7.48
2022-11-16T00:46:40.842Z,7.71
2022-11-16T00:47:37.691Z,6.99
2022-11-16T00:48:34.751Z,7.34
2022-11-16T00:49:31.630Z,6.15
2022-11-16T00:50:28.408Z,7.02
2022-11-16T00:51:25.288Z,6.91
2022-11-16T00:52:22.009Z,6.97
2022-11-16T00:53:20.408Z,6.33
2022-11-16T00:54:17.431Z,7.20
2022-11-16T00:55:14.238Z,6.87
2022-11-16T00:56:11.071Z,6.81
2022-11-16T00:57:07.809Z,6.87
2022-11-16T00:58:04.834Z,6.65
2022-11-16T00:59:01.576Z,7.11
2022-11-16T00:59:58.307Z,7.11
2022-11-16T01:00:55.128Z,6.80
2022-11-16T01:01:51.892Z,7.41
2022-11-16T01:02:48.738Z,6.97
2022-11-16T01:03:46.087Z,6.34
2022-11-16T01:04:42.844Z,7.83
2022-11-16T01:05:40.118Z,7.85
2022-11-16T01:06:36.956Z,7.37
2022-11-16T01:07:35.808Z,7.20
2022-11-16T01:08:33.869Z,6.89
2022-11-16T01:09:30.738Z,6.87
2022-11-16T01:10:28.298Z,6.62
2022-11-16T01:11:43.530Z,6.46
2022-11-16T01:12:40.962Z,6.80
2022-11-16T01:13:37.673Z,6.65
2022-11-16T01:14:35.715Z,6.00
2022-11-16T01:15:32.609Z,6.70
2022-11-16T01:16:30.121Z,6.68
2022-11-16T01:17:26.883Z,6.42
2022-11-16T01:18:23.637Z,6.76
2022-11-16T01:19:20.383Z,6.60
2022-11-16T01:20:20.625Z,6.60
2022-11-16T01:21:17.908Z,6.78
2022-11-16T01:22:14.755Z,6.72
2022-11-16T01:23:12.474Z,6.01
2022-11-16T01:24:09.500Z,6.05
2022-11-16T01:25:08.115Z,6.79
2022-11-16T01:26:05.555Z,6.92
2022-11-16T01:27:02.315Z,6.82
2022-11-16T01:27:59.084Z,6.79
2022-11-16T01:28:55.897Z,7.23
2022-11-16T01:29:52.645Z,6.57
2022-11-16T01:30:49.392Z,6.43
2022-11-16T01:31:46.170Z,6.17
2022-11-16T01:32:43.080Z,6.26
2022-11-16T01:33:40.315Z,6.12
2022-11-16T01:34:37.130Z,6.21
2022-11-16T01:35:33.869Z,6.26
2022-11-16T01:36:30.700Z,5.93
2022-11-16T01:37:28.220Z,5.74
2022-11-16T01:38:29.588Z,6.15
2022-11-16T01:39:26.788Z,6.47
2022-11-16T01:40:23.525Z,6.37
2022-11-16T01:41:24.059Z,5.59
2022-11-16T01:42:29.748Z,6.35
2022-11-16T01:43:27.267Z,6.46
2022-11-16T01:44:33.091Z,6.38
2022-11-16T01:45:41.278Z,6.46
2022-11-16T01:46:38.039Z,6.20
2022-11-16T01:47:34.868Z,6.74
2022-11-16T01:48:32.469Z,7.08
2022-11-16T01:49:33.770Z,6.68
2022-11-16T01:50:30.668Z,6.54
2022-11-16T01:51:28.371Z,6.52
2022-11-16T01:52:31.312Z,5.85
2022-11-16T01:53:28.451Z,6.48
2022-11-16T01:54:27.426Z,6.65
2022-11-16T01:55:28.526Z,5.91
2022-11-16T01:56:26.198Z,6.91
2022-11-16T01:57:36.388Z,7.21
2022-11-16T01:58:33.465Z,6.05
2022-11-16T01:59:30.907Z,6.15
2022-11-16T02:00:28.109Z,6.84
2022-11-16T02:01:24.846Z,6.17
2022-11-16T02:02:21.788Z,6.35
2022-11-16T02:03:20.569Z,5.81
2022-11-16T02:04:17.347Z,6.00
2022-11-16T02:05:19.635Z,5.93
2022-11-16T02:06:29.628Z,5.26
2022-11-16T02:08:10.576Z,5.35
2022-11-16T02:09:58.228Z,5.79
2022-11-16T02:12:08.893Z,5.69
2022-11-16T02:13:56.307Z,5.46
2022-11-16T02:15:14.046Z,5.59
2022-11-16T02:16:22.635Z,5.72
2022-11-16T02:17:19.351Z,5.67
2022-11-16T02:18:24.701Z,5.72
2022-11-16T02:19:30.150Z,5.89
2022-11-16T02:20:45.399Z,6.15
2022-11-16T02:22:05.089Z,6.12
2022-11-16T02:23:13.405Z,6.66
2022-11-16T02:24:12.807Z,6.88
2022-11-16T02:25:46.862Z,6.77
2022-11-16T02:27:11.456Z,6.14
2022-11-16T02:28:32.578Z,5.57
2022-11-16T02:29:45.868Z,5.72
2022-11-16T02:30:49.050Z,5.54
2022-11-16T02:32:08.582Z,5.64
2022-11-16T02:33:14.977Z,5.73
2022-11-16T02:34:18.066Z,5.28
2022-11-16T02:35:18.989Z,5.42
2022-11-16T02:36:22.765Z,5.60
2022-11-16T02:37:23.527Z,2.86
2022-11-16T02:38:29.673Z,5.94
2022-11-16T02:39:30.144Z,6.15
2022-11-16T02:40:31.911Z,4.97
2022-11-16T02:41:35.499Z,4.78
2022-11-16T02:42:43.365Z,5.45
2022-11-16T02:44:02.135Z,5.42
2022-11-16T02:45:03.130Z,5.68
2022-11-16T02:46:08.561Z,5.73
2022-11-16T02:47:13.593Z,5.93
2022-11-16T02:48:36.016Z,5.28
2022-11-16T02:49:44.772Z,4.91
2022-11-16T02:50:43.249Z,4.25
2022-11-16T02:51:40.802Z,4.44
2022-11-16T02:52:39.006Z,4.15
2022-11-16T02:53:59.188Z,5.30
2022-11-16T02:54:55.983Z,5.30
2022-11-16T02:55:52.790Z,5.36
2022-11-16T02:56:55.355Z,5.49
2022-11-16T02:57:59.176Z,5.48
2022-11-16T02:58:59.465Z,5.60
2022-11-16T02:59:59.226Z,5.71
2022-11-16T03:01:08.250Z,5.96
2022-11-16T03:02:23.414Z,6.11
2022-11-16T03:03:36.323Z,6.15
2022-11-16T03:04:40.995Z,6.01
2022-11-16T03:05:50.365Z,4.19
2022-11-16T03:06:50.259Z,5.59
2022-11-16T03:08:01.280Z,4.43
2022-11-16T03:09:23.920Z,5.11
2022-11-16T03:10:41.407Z,5.30
2022-11-16T03:11:59.507Z,5.15
2022-11-16T03:12:56.941Z,4.46
2022-11-16T03:14:11.402Z,4.89
2022-11-16T03:15:12.927Z,4.26
2022-11-16T03:16:40.994Z,4.64
2022-11-16T03:17:44.436Z,3.97
2022-11-16T03:18:46.799Z,3.67
2022-11-16T03:20:00.615Z,4.82
2022-11-16T03:21:26.816Z,4.60
2022-11-16T03:22:28.447Z,5.13
2022-11-16T03:23:25.294Z,5.07
2022-11-16T03:24:22.311Z,4.67
2022-11-16T03:25:21.857Z,4.43
2022-11-16T03:26:24.002Z,4.32
2022-11-16T03:27:43.460Z,4.55
2022-11-16T03:29:07.752Z,4.81
2022-11-16T03:30:13.423Z,5.44
2022-11-16T03:31:21.547Z,3.33
2022-11-16T03:32:41.947Z,4.74
2022-11-16T03:33:49.107Z,4.37
2022-11-16T03:35:06.352Z,4.48
2022-11-16T03:36:33.758Z,4.28
2022-11-16T03:37:33.969Z,4.23
2022-11-16T03:38:35.459Z,4.33
2022-11-16T03:39:38.283Z,4.64
2022-11-16T03:40:37.686Z,4.42
2022-11-16T03:41:39.162Z,3.70
2022-11-16T03:42:37.789Z,4.52
2022-11-16T03:43:38.111Z,4.67
2022-11-16T03:44:36.690Z,3.54
2022-11-16T03:45:34.039Z,4.62
2022-11-16T03:46:30.940Z,4.71
2022-11-16T03:47:27.681Z,5.28
2022-11-16T03:48:24.937Z,4.84
2022-11-16T03:49:23.398Z,4.57
2022-11-16T03:50:20.252Z,5.00
2022-11-16T03:51:16.967Z,5.21
2022-11-16T03:52:18.871Z,5.49
2022-11-16T03:53:15.762Z,5.92
2022-11-16T03:54:12.455Z,6.10
2022-11-16T03:55:09.708Z,5.22
2022-11-16T03:56:06.641Z,5.73
2022-11-16T03:57:03.552Z,5.85
2022-11-16T03:58:00.357Z,4.91
2022-11-16T03:58:57.081Z,5.36
2022-11-16T03:59:53.798Z,6.00
2022-11-16T04:00:50.607Z,5.61
2022-11-16T04:01:47.401Z,5.51
2022-11-16T04:02:44.171Z,5.00
2022-11-16T04:03:40.944Z,5.33
2022-11-16T04:04:56.745Z,5.11
2022-11-16T04:06:11.816Z,5.11
2022-11-16T04:07:27.822Z,4.36
2022-11-16T04:08:43.076Z,5.01
2022-11-16T04:09:58.506Z,5.70
2022-11-16T04:11:13.742Z,6.22
2022-11-16T04:12:29.718Z,6.43
2022-11-16T04:13:51.652Z,6.04
2022-11-16T04:15:07.074Z,6.06
2022-11-16T04:16:22.333Z,6.62
2022-11-16T04:17:37.957Z,6.14
2022-11-16T04:18:53.443Z,6.18
2022-11-16T04:20:08.722Z,5.02
2022-11-16T04:21:25.089Z,6.48
2022-11-16T04:22:49.016Z,5.69
2022-11-16T04:24:07.444Z,4.93
2022-11-16T04:25:14.311Z,5.73
2022-11-16T04:26:11.784Z,4.59
2022-11-16T04:27:32.637Z,5.61
2022-11-16T04:28:34.450Z,5.76
2022-11-16T04:29:32.320Z,5.79
2022-11-16T04:30:51.739Z,6.18
2022-11-16T04:32:07.077Z,6.67
2022-11-16T04:33:22.594Z,6.21
2022-11-16T04:34:38.036Z,6.59
2022-11-16T04:35:53.485Z,5.20
2022-11-16T04:37:28.294Z,6.64
2022-11-16T04:38:25.088Z,4.65
2022-11-16T04:39:22.386Z,5.56
2022-11-16T04:40:25.408Z,4.98
2022-11-16T04:41:40.530Z,5.94
2022-11-16T04:42:37.303Z,6.30
2022-11-16T04:43:34.056Z,6.60
2022-11-16T04:44:54.025Z,6.43
2022-11-16T04:46:09.018Z,5.78
2022-11-16T04:47:08.731Z,5.91
2022-11-16T04:48:06.198Z,5.43
2022-11-16T04:49:02.972Z,6.06
2022-11-16T04:49:59.677Z,6.52
2022-11-16T04:50:56.416Z,6.67
2022-11-16T04:51:53.480Z,6.14
2022-11-16T04:52:50.293Z,6.72
2022-11-16T04:53:47.350Z,6.70
2022-11-16T04:54:44.099Z,7.00
2022-11-16T04:55:40.893Z,5.62
2022-11-16T04:56:37.644Z,5.79
2022-11-16T04:57:34.459Z,5.95
2022-11-16T04:58:31.362Z,5.81
2022-11-16T04:59:28.345Z,6.43
2022-11-16T05:00:25.807Z,6.46
2022-11-16T05:01:42.537Z,6.62
2022-11-16T05:02:39.387Z,6.54
2022-11-16T05:03:36.135Z,7.08
2022-11-16T05:04:32.921Z,7.23
2022-11-16T05:05:29.779Z,7.02
2022-11-16T05:06:26.560Z,6.63
2022-11-16T05:07:23.406Z,6.42
2022-11-16T05:08:20.179Z,6.57
2022-11-16T05:09:16.924Z,6.52
2022-11-16T05:10:14.268Z,6.54
2022-11-16T05:11:11.005Z,5.17
2022-11-16T05:12:08.720Z,5.87
2022-11-16T05:13:05.536Z,6.72
2022-11-16T05:14:02.584Z,6.51
2022-11-16T05:14:59.513Z,6.75
2022-11-16T05:15:56.240Z,6.30
2022-11-16T05:16:53.026Z,6.15
2022-11-16T05:17:51.165Z,6.08
2022-11-16T05:19:10.578Z,5.40
2022-11-16T05:20:26.349Z,5.65
2022-11-16T05:21:23.087Z,6.12
2022-11-16T05:22:19.989Z,5.78
2022-11-16T05:23:35.326Z,5.80
2022-11-16T05:24:35.026Z,5.53
2022-11-16T05:25:36.430Z,6.30
2022-11-16T05:26:33.775Z,6.81
2022-11-16T05:27:30.603Z,6.88
2022-11-16T05:28:27.340Z,6.68
2022-11-16T05:29:24.262Z,6.60
2022-11-16T05:30:21.098Z,6.09
2022-11-16T05:31:17.879Z,6.35
2022-11-16T05:32:14.654Z,6.46
2022-11-16T05:33:11.446Z,5.32
2022-11-16T05:34:09.460Z,6.63
2022-11-16T05:35:06.406Z,6.81
2022-11-16T05:36:03.174Z,5.81
2022-11-16T05:37:00.406Z,6.38
2022-11-16T05:37:57.099Z,6.17
2022-11-16T05:38:56.240Z,5.91
2022-11-16T05:39:54.992Z,4.89
2022-11-16T05:40:51.836Z,5.34
2022-11-16T05:41:48.645Z,5.66
2022-11-16T05:42:45.468Z,6.04
2022-11-16T05:43:42.237Z,6.33
2022-11-16T05:44:39.115Z,5.85
2022-11-16T05:45:35.868Z,6.10
2022-11-16T05:46:33.149Z,4.84
2022-11-16T05:47:29.880Z,6.15
2022-11-16T05:48:26.607Z,6.75
2022-11-16T05:49:24.256Z,6.96
2022-11-16T05:50:21.140Z,7.04
2022-11-16T05:51:17.922Z,5.57
2022-11-16T05:52:14.679Z,6.66
2022-11-16T05:53:11.421Z,6.75
2022-11-16T05:54:11.108Z,6.53
2022-11-16T05:55:08.477Z,5.08
2022-11-16T05:56:05.655Z,6.80
2022-11-16T05:57:02.341Z,6.78
2022-11-16T05:57:59.126Z,6.81
2022-11-16T05:58:56.338Z,6.21
2022-11-16T05:59:53.093Z,6.25
2022-11-16T06:00:51.074Z,6.20
2022-11-16T06:01:49.523Z,5.96
2022-11-16T06:02:46.384Z,6.08
2022-11-16T06:03:43.151Z,5.73
2022-11-16T06:04:39.900Z,6.08
2022-11-16T06:05:40.532Z,6.03
2022-11-16T06:06:37.840Z,6.01
2022-11-16T06:07:34.648Z,6.26
2022-11-16T06:08:31.686Z,6.16
2022-11-16T06:09:28.611Z,6.20
2022-11-16T06:10:25.760Z,4.79
2022-11-16T06:11:22.779Z,5.64
2022-11-16T06:12:19.604Z,6.08
2022-11-16T06:13:17.067Z,5.72
2022-11-16T06:14:13.841Z,6.40
2022-11-16T06:15:10.706Z,6.23
2022-11-16T06:16:07.800Z,5.87
2022-11-16T06:17:04.580Z,6.90
2022-11-16T06:18:01.281Z,6.90
2022-11-16T06:18:59.302Z,6.86
2022-11-16T06:19:56.008Z,6.85
2022-11-16T06:20:53.631Z,6.94
2022-11-16T06:21:50.346Z,7.06
2022-11-16T06:22:47.099Z,7.28
2022-11-16T06:23:43.957Z,6.43
2022-11-16T06:24:40.681Z,6.20
2022-11-16T06:25:39.791Z,6.19
2022-11-16T06:26:37.298Z,6.53
2022-11-16T06:27:34.112Z,6.22
2022-11-16T06:28:31.107Z,7.04
2022-11-16T06:29:28.015Z,7.00
2022-11-16T06:30:25.212Z,6.41
2022-11-16T06:31:22.441Z,6.74
2022-11-16T06:32:19.450Z,6.96
2022-11-16T06:33:16.960Z,6.63
2022-11-16T06:34:13.798Z,6.53
2022-11-16T06:35:10.959Z,6.94
2022-11-16T06:36:08.146Z,6.84
2022-11-16T06:37:05.608Z,6.82
2022-11-16T06:38:02.360Z,6.83
2022-11-16T06:39:01.308Z,5.94
2022-11-16T06:39:58.042Z,6.51
2022-11-16T06:40:58.053Z,6.97
2022-11-16T06:41:54.801Z,6.40
2022-11-16T06:42:51.625Z,6.56
2022-11-16T06:43:48.408Z,4.45
2022-11-16T06:44:45.149Z,6.45
2022-11-16T06:45:41.912Z,6.32
2022-11-16T06:46:38.698Z,6.33
2022-11-16T06:47:36.039Z,6.98
2022-11-16T06:48:33.979Z,7.42
2022-11-16T06:49:31.093Z,7.30
2022-11-16T06:50:27.819Z,7.97
2022-11-16T06:51:27.410Z,7.91
2022-11-16T06:52:24.130Z,7.30
2022-11-16T06:53:27.542Z,6.27
2022-11-16T06:54:34.992Z,7.00
2022-11-16T06:55:32.069Z,7.13
2022-11-16T06:56:29.361Z,6.69
2022-11-16T06:57:26.128Z,5.84
2022-11-16T06:58:22.885Z,7.19
2022-11-16T06:59:19.751Z,7.18
2022-11-16T07:00:17.308Z,7.39
2022-11-16T07:01:14.208Z,6.98
2022-11-16T07:02:11.790Z,7.23
2022-11-16T07:03:08.623Z,6.94
2022-11-16T07:04:05.456Z,7.28
2022-11-16T07:05:03.698Z,7.17
2022-11-16T07:06:09.915Z,7.81
2022-11-16T07:07:06.786Z,7.58
2022-11-16T07:08:03.601Z,7.53
2022-11-16T07:09:00.358Z,7.81
2022-11-16T07:09:57.087Z,7.41
2022-11-16T07:10:53.777Z,6.75
2022-11-16T07:11:50.505Z,7.71
2022-11-16T07:12:47.238Z,7.49
2022-11-16T07:13:43.974Z,8.17
2022-11-16T07:14:41.081Z,8.27
2022-11-16T07:15:37.868Z,8.32
2022-11-16T07:16:36.350Z,8.32
2022-11-16T07:17:42.882Z,8.07
2022-11-16T07:18:41.416Z,8.33
2022-11-16T07:19:38.194Z,8.31
2022-11-16T07:20:37.779Z,8.41
2022-11-16T07:21:34.628Z,8.67
2022-11-16T07:22:33.063Z,8.57
2022-11-16T07:23:31.115Z,7.17
2022-11-16T07:24:27.873Z,7.60
2022-11-16T07:25:24.628Z,7.88
2022-11-16T07:26:21.844Z,8.68
2022-11-16T07:27:18.573Z,6.52
2022-11-16T07:28:15.406Z,8.06
2022-11-16T07:29:12.145Z,7.78
2022-11-16T07:30:09.434Z,7.68
2022-11-16T07:31:11.792Z,8.51
2022-11-16T07:32:08.491Z,9.07
2022-11-16T07:33:05.215Z,8.86
2022-11-16T07:34:01.913Z,8.79
2022-11-16T07:34:59.596Z,8.04
2022-11-16T07:36:04.628Z,9.31
2022-11-16T07:37:01.383Z,9.22
2022-11-16T07:37:58.253Z,9.39
2022-11-16T07:38:56.245Z,9.73
2022-11-16T07:39:53.118Z,8.43
2022-11-16T07:40:49.853Z,9.84
2022-11-16T07:41:47.109Z,9.85
2022-11-16T07:42:45.403Z,8.63
2022-11-16T07:43:42.631Z,8.80
2022-11-16T07:44:39.479Z,9.03
2022-11-16T07:45:36.214Z,9.38
2022-11-16T07:46:48.880Z,9.07
2022-11-16T07:47:45.824Z,8.36
2022-11-16T07:48:42.893Z,8.27
2022-11-16T07:49:40.063Z,7.34
2022-11-16T07:50:36.916Z,7.54
2022-11-16T07:51:33.664Z,7.93
2022-11-16T07:52:30.390Z,7.96
2022-11-16T07:53:27.215Z,7.46
2022-11-16T07:54:24.198Z,8.59
2022-11-16T07:55:21.031Z,8.67
2022-11-16T07:56:17.745Z,9.35
2022-11-16T07:57:14.480Z,9.43
2022-11-16T07:58:11.285Z,9.73
2022-11-16T07:59:08.415Z,8.71
2022-11-16T08:00:06.183Z,8.69
2022-11-16T08:01:07.681Z,8.63
2022-11-16T08:02:04.506Z,7.43
2022-11-16T08:03:01.248Z,8.11
2022-11-16T08:03:58.157Z,8.98
2022-11-16T08:04:55.182Z,9.38
2022-11-16T08:05:59.736Z,8.45
2022-11-16T08:06:56.541Z,8.70
2022-11-16T08:07:53.501Z,8.74
2022-11-16T08:08:53.772Z,9.18
2022-11-16T08:09:54.718Z,8.77
2022-11-16T08:10:51.477Z,9.77
2022-11-16T08:11:48.240Z,9.14
2022-11-16T08:12:45.000Z,10.24
2022-11-16T08:13:42.834Z,10.18
2022-11-16T08:14:39.667Z,10.20
2022-11-16T08:15:36.362Z,9.52
2022-11-16T08:16:33.488Z,10.19
2022-11-16T08:17:30.792Z,9.63
2022-11-16T08:18:27.629Z,9.98
2022-11-16T08:19:24.371Z,10.08
2022-11-16T08:20:21.056Z,10.37
2022-11-16T08:21:19.143Z,10.21
2022-11-16T08:22:15.891Z,10.09
2022-11-16T08:23:12.604Z,9.80
2022-11-16T08:24:09.554Z,9.40
2022-11-16T08:25:07.033Z,9.17
2022-11-16T08:26:07.053Z,9.51
2022-11-16T08:27:03.876Z,9.93
2022-11-16T08:28:00.601Z,10.00
2022-11-16T08:28:57.447Z,9.98
2022-11-16T08:29:54.216Z,9.69
2022-11-16T08:30:54.004Z,9.42
2022-11-16T08:31:50.969Z,9.80
2022-11-16T08:32:47.851Z,10.07
2022-11-16T08:33:44.921Z,9.57
2022-11-16T08:34:41.674Z,10.01
2022-11-16T08:35:38.440Z,9.97
2022-11-16T08:36:35.623Z,9.93
2022-11-16T08:37:32.433Z,9.87
2022-11-16T08:38:29.188Z,9.94
2022-11-16T08:39:25.946Z,9.49
2022-11-16T08:40:22.678Z,10.37
2022-11-16T08:41:20.815Z,10.48
2022-11-16T08:42:17.565Z,10.50
2022-11-16T08:43:14.329Z,10.58
2022-11-16T08:44:11.668Z,10.63
2022-11-16T08:45:08.731Z,10.01
2022-11-16T08:46:09.095Z,8.63
2022-11-16T08:47:05.826Z,8.97
2022-11-16T08:48:04.458Z,9.64
2022-11-16T08:49:01.217Z,10.11
2022-11-16T08:49:58.174Z,9.53
2022-11-16T08:52:09.072Z,9.74
2022-11-16T08:53:05.796Z,10.15
2022-11-16T08:54:03.979Z,9.63
2022-11-16T08:55:00.698Z,9.88
2022-11-16T08:56:09.689Z,10.54
2022-11-16T08:57:06.475Z,10.71
2022-11-16T08:58:03.886Z,9.61
2022-11-16T08:59:00.901Z,10.87
2022-11-16T08:59:57.692Z,10.92
2022-11-16T09:00:55.169Z,10.78
2022-11-16T09:01:52.037Z,10.68
2022-11-16T09:02:49.059Z,10.47
2022-11-16T09:03:48.363Z,10.20
2022-11-16T09:04:45.123Z,9.77
2022-11-16T09:05:42.645Z,9.79
2022-11-16T09:06:39.367Z,10.05
2022-11-16T09:07:36.173Z,10.74
2022-11-16T09:08:34.173Z,10.81
2022-11-16T09:09:31.163Z,9.99
2022-11-16T09:10:27.952Z,9.11
2022-11-16T09:11:25.979Z,9.76
2022-11-16T09:12:22.934Z,10.26
2022-11-16T09:14:34.190Z,8.98
2022-11-16T09:15:35.005Z,10.41
2022-11-16T09:16:31.804Z,10.77
2022-11-16T09:17:28.815Z,10.78
2022-11-16T09:18:26.113Z,10.29
2022-11-16T09:19:22.882Z,10.36
2022-11-16T09:20:19.605Z,10.01
2022-11-16T09:21:25.628Z,10.52
2022-11-16T09:22:22.354Z,10.55
2022-11-16T09:23:24.880Z,9.49
2022-11-16T09:24:22.195Z,10.66
2022-11-16T09:25:19.170Z,10.68
2022-11-16T09:26:19.129Z,10.48
2022-11-16T09:27:16.550Z,10.30
2022-11-16T09:28:13.314Z,11.24
2022-11-16T09:29:14.854Z,10.94
2022-11-16T09:30:11.965Z,10.66
2022-11-16T09:31:10.234Z,10.74
2022-11-16T09:32:07.022Z,10.19
2022-11-16T09:33:03.767Z,10.90
2022-11-16T09:34:00.704Z,10.81
2022-11-16T09:34:57.417Z,10.54
2022-11-16T09:35:54.133Z,11.00
2022-11-16T09:36:51.007Z,10.92
2022-11-16T09:37:47.701Z,11.25
2022-11-16T09:39:17.770Z,11.14
2022-11-16T09:40:04.056Z,9.96
2022-11-16T09:42:47.090Z,11.36
2022-11-16T09:44:06.045Z,10.94
2022-11-16T09:45:05.586Z,11.12
2022-11-16T09:46:08.182Z,11.42
2022-11-16T09:47:16.038Z,10.56
2022-11-16T09:48:17.009Z,11.52
2022-11-16T09:49:22.050Z,10.73
2022-11-16T09:53:35.548Z,10.87
2022-11-16T09:54:40.297Z,11.11
2022-11-16T09:55:47.963Z,10.13
2022-11-16T09:56:49.198Z,11.28
2022-11-16T09:57:48.791Z,10.73
2022-11-16T09:59:18.362Z,10.48
2022-11-16T10:00:20.356Z,10.82
2022-11-16T10:01:29.591Z,10.85
2022-11-16T10:02:37.882Z,11.31
2022-11-16T10:03:43.609Z,10.37
2022-11-16T10:04:40.281Z,11.42
2022-11-16T10:05:39.070Z,11.46
2022-11-16T10:06:49.466Z,10.91
2022-11-16T10:07:52.304Z,11.85
2022-11-16T10:08:56.820Z,11.89
2022-11-16T10:09:56.211Z,11.95
2022-11-16T10:11:06.629Z,12.13
2022-11-16T10:12:24.260Z,11.97
2022-11-16T10:13:33.952Z,12.20
2022-11-16T10:14:42.816Z,11.97
2022-11-16T10:15:39.505Z,11.63
2022-11-16T10:16:49.159Z,11.65
2022-11-16T10:18:03.878Z,11.89
2022-11-16T10:19:14.448Z,11.47
2022-11-16T10:20:31.125Z,11.73
2022-11-16T10:21:46.212Z,12.06
2022-11-16T10:23:13.706Z,12.25
2022-11-16T10:24:41.830Z,12.37
2022-11-16T10:25:42.063Z,12.31
2022-11-16T10:26:38.997Z,12.06
2022-11-16T10:28:29.406Z,11.67
2022-11-16T10:29:57.262Z,12.20
2022-11-16T10:31:09.850Z,12.43
2022-11-16T10:32:28.184Z,12.32
2022-11-16T10:33:35.593Z,11.62
2022-11-16T10:35:25.141Z,12.57
2022-11-16T10:36:27.530Z,12.30
2022-11-16T10:37:31.545Z,11.77
2022-11-16T10:38:33.140Z,12.55
2022-11-16T10:39:33.248Z,11.88
2022-11-16T10:40:37.945Z,11.79
2022-11-16T10:41:47.008Z,11.76
2022-11-16T10:42:51.945Z,11.34
2022-11-16T10:43:48.893Z,12.11
2022-11-16T10:45:02.556Z,12.45
2022-11-16T10:46:00.383Z,13.15
2022-11-16T10:47:04.754Z,13.04
2022-11-16T10:48:19.912Z,13.03
2022-11-16T10:49:29.262Z,12.73
2022-11-16T10:50:35.858Z,11.17
2022-11-16T10:51:32.578Z,11.70
2022-11-16T10:52:29.601Z,12.21
2022-11-16T10:53:29.839Z,12.13
2022-11-16T10:54:26.556Z,12.72
2022-11-16T10:55:24.499Z,12.44
2022-11-16T10:56:27.392Z,11.95
2022-11-16T10:57:26.557Z,12.66
2022-11-16T10:58:23.345Z,13.13
2022-11-16T10:59:20.728Z,12.67
2022-11-16T11:00:33.459Z,12.95
2022-11-16T11:01:32.813Z,13.17
2022-11-16T11:02:34.712Z,13.05
2022-11-16T11:03:32.802Z,12.84
2022-11-16T11:04:31.673Z,12.83
2022-11-16T11:05:28.994Z,12.30
2022-11-16T11:06:26.898Z,12.26
2022-11-16T11:07:32.525Z,12.86
2022-11-16T11:08:31.234Z,12.83
2022-11-16T11:09:34.147Z,12.82
2022-11-16T11:10:36.980Z,11.68
2022-11-16T11:11:52.226Z,12.89
2022-11-16T11:13:25.063Z,12.91
2022-11-16T11:14:21.779Z,13.16
2022-11-16T11:15:26.874Z,12.73
2022-11-16T11:16:24.096Z,12.95
2022-11-16T11:17:20.794Z,13.25
2022-11-16T11:18:23.254Z,13.32
2022-11-16T11:19:27.547Z,13.43
2022-11-16T11:20:24.566Z,13.65
2022-11-16T11:21:26.810Z,12.55
2022-11-16T11:22:23.673Z,13.17
2022-11-16T11:23:24.365Z,13.20
2022-11-16T11:25:48.708Z,13.29
2022-11-16T11:26:54.164Z,12.93
2022-11-16T11:28:06.773Z,13.42
2022-11-16T11:29:20.657Z,13.02
2022-11-16T11:30:22.245Z,13.55
2022-11-16T11:31:43.969Z,13.39
2022-11-16T11:32:40.875Z,13.48
2022-11-16T11:34:02.388Z,13.64
2022-11-16T11:35:01.043Z,13.10
2022-11-16T11:36:13.805Z,13.33
2022-11-16T11:37:19.171Z,13.12
2022-11-16T11:39:37.596Z,12.13
2022-11-16T11:42:22.954Z,13.26
2022-11-16T11:43:24.862Z,12.41
2022-11-16T11:44:30.028Z,12.75
2022-11-16T11:45:50.709Z,13.81
2022-11-16T11:47:50.514Z,13.29
2022-11-16T11:48:35.672Z,13.25
2022-11-16T11:49:40.462Z,13.03
2022-11-16T11:51:02.611Z,13.65
2022-11-16T11:52:27.784Z,13.85
2022-11-16T11:53:36.275Z,13.69
2022-11-16T11:54:45.638Z,13.89
2022-11-16T11:55:42.945Z,14.04
2022-11-16T11:56:39.686Z,13.82
2022-11-16T11:57:42.108Z,13.86
2022-11-16T11:58:41.356Z,13.83
2022-11-16T11:59:38.201Z,13.47
2022-11-16T12:01:00.953Z,13.47
2022-11-16T12:02:03.513Z,13.71
2022-11-16T12:03:22.736Z,12.41
2022-11-16T12:04:44.070Z,13.99
2022-11-16T12:06:17.948Z,14.17
2022-11-16T12:07:17.722Z,14.16
2022-11-16T12:08:14.807Z,14.00
2022-11-16T12:09:21.872Z,13.85
2022-11-16T12:10:21.290Z,13.75
2022-11-16T12:11:36.016Z,13.79
2022-11-16T12:12:51.232Z,13.83
2022-11-16T12:13:57.960Z,13.54
2022-11-16T12:15:18.198Z,13.36
2022-11-16T12:16:43.384Z,13.08
2022-11-16T12:18:17.602Z,13.21
2022-11-16T12:19:32.833Z,13.06
2022-11-16T12:20:52.253Z,13.19
2022-11-16T12:22:21.055Z,13.16
2022-11-16T12:23:36.873Z,12.97
2022-11-16T12:25:07.554Z,13.05
2022-11-16T12:26:37.365Z,13.47
2022-11-16T12:27:48.396Z,13.76
2022-11-16T12:29:08.279Z,13.97
2022-11-16T12:30:11.161Z,13.95
2022-11-16T12:31:27.381Z,14.03
2022-11-16T12:32:40.660Z,13.95
2022-11-16T12:33:44.298Z,14.00
2022-11-16T12:35:03.000Z,13.65
2022-11-16T12:36:16.210Z,13.56
2022-11-16T12:37:45.489Z,13.97
2022-11-16T12:38:51.607Z,13.94
2022-11-16T12:40:21.576Z,13.78
2022-11-16T12:41:41.029Z,13.93
2022-11-16T12:42:52.750Z,14.04
2022-11-16T12:44:04.908Z,14.05
2022-11-16T12:45:17.722Z,13.99
2022-11-16T12:46:35.504Z,13.95
2022-11-16T12:47:40.961Z,13.96
2022-11-16T12:48:55.116Z,14.19
2022-11-16T12:50:13.620Z,14.22
2022-11-16T12:51:16.426Z,14.52
2022-11-16T12:52:47.749Z,14.35
2022-11-16T12:54:09.804Z,14.39
2022-11-16T12:55:26.760Z,14.26
2022-11-16T12:56:30.064Z,14.16
2022-11-16T12:58:03.261Z,14.30
2022-11-16T12:59:28.258Z,14.19
2022-11-16T13:00:28.797Z,13.63
2022-11-16T13:02:04.576Z,13.99
2022-11-16T13:03:23.437Z,13.93
2022-11-16T13:04:31.134Z,13.58
2022-11-16T13:05:43.087Z,14.42
2022-11-16T13:06:55.260Z,13.11
2022-11-16T13:08:02.920Z,13.93
2022-11-16T13:09:13.480Z,14.12
2022-11-16T13:10:26.991Z,13.60
2022-11-16T13:11:33.926Z,13.59
2022-11-16T13:12:33.523Z,14.34
2022-11-16T13:13:49.726Z,13.49
2022-11-16T13:14:57.701Z,14.20
2022-11-16T13:15:57.665Z,13.96
2022-11-16T13:16:57.509Z,12.92
2022-11-16T13:18:05.103Z,13.79
2022-11-16T13:19:09.962Z,13.91
2022-11-16T13:20:18.602Z,14.23
2022-11-16T13:21:30.256Z,14.07
2022-11-16T13:22:39.765Z,11.31
2022-11-16T13:24:04.575Z,14.20
2022-11-16T13:25:23.353Z,14.00
2022-11-16T13:26:30.082Z,13.86
2022-11-16T13:27:40.998Z,14.11
2022-11-16T13:29:11.060Z,13.68
2022-11-16T13:30:42.904Z,13.31
2022-11-16T13:32:07.929Z,13.33
2022-11-16T13:33:40.008Z,14.16
2022-11-16T13:34:42.653Z,13.33
2022-11-16T13:35:39.545Z,13.41
2022-11-16T13:36:44.384Z,13.24
2022-11-16T13:37:47.095Z,13.84
2022-11-16T13:38:54.981Z,12.75
2022-11-16T13:39:57.919Z,14.01
2022-11-16T13:41:46.931Z,14.04
2022-11-16T13:43:12.664Z,13.55
2022-11-16T13:44:18.793Z,14.09
2022-11-16T13:45:17.462Z,14.05
2022-11-16T13:46:40.774Z,14.08
2022-11-16T13:47:37.144Z,12.31
2022-11-16T13:48:38.755Z,12.73
2022-11-16T13:50:00.825Z,13.57
2022-11-16T13:51:04.802Z,10.72
2022-11-16T13:52:23.396Z,13.01
2022-11-16T13:54:56.082Z,14.04
2022-11-16T13:56:08.635Z,13.76
2022-11-16T13:57:29.331Z,13.81
2022-11-16T13:58:29.635Z,13.69
2022-11-16T13:59:31.531Z,13.44
2022-11-16T14:00:44.875Z,13.07
2022-11-16T14:02:30.176Z,13.89
2022-11-16T14:03:38.395Z,13.52
2022-11-16T14:04:54.922Z,13.75
2022-11-16T14:06:01.158Z,14.14